KOPF/OPF METAR and TAF weather

Enter ICAO airport designator
Station Type Date Time Source
KOPF METAR 2021/01/16 02:53 UTC NOAA

KOPF 160253Z 21007KT 10SM CLR 21/13 A2991 RMK AO2 SLP128 T02060133 51012


Station Type Date Time Source
KOPF Decoded METAR 2021/01/16 02:53 UTC NOAA

MIAMI OPA LOCKA AIRPORT, FL, United States (KOPF) 25-54N 80-17W 16M
Jan 15, 2021 - 09:53 PM EST / 2021.01.16 0253 UTC
Wind: from the SSW (210 degrees) at 8 MPH (7 KT):0
Visibility: 10 mile(s):0
Sky conditions: clear
Temperature: 69.1 F (20.6 C)
Dew Point: 55.9 F (13.3 C)
Relative Humidity: 62%
Pressure (altimeter): 29.91 in. Hg (1012 hPa)
Pressure tendency: 0.04 inches (1.2 hPa) higher than three hours ago
ob: KOPF 160253Z 21007KT 10SM CLR 21/13 A2991 RMK AO2 SLP128 T02060133 51012
cycle: 3

Station Type Date Time Source
KOPF TAF 2021/01/15 21:57 UTC NOAA

TAF
AMD KOPF 152055Z 1521/1618 24005KT P6SM FEW035
FM160800 28008KT P6SM SCT025 BKN035
FM161200 30010G18KT P6SM SCT050 BKN100

Example: see airport list